Nbp Island — V2FH3 — position and weather

sailwx.info

Track history (hours):
 
Tides and Currents Weather Stations Pressure Air Temp Water Temp Dewpoint Dewpoint Depression Visibility Wind Speed Wind Dir Waves Ship Positions

Nbp Island

Last reported at 2018-Jan-22 21:55 UTC. Time now 2018-Jan-22 22:17 UTC.
Position N 51°20' E 002°32'.

Length 107 m; draft 8.2 m.

Type: Cargo ship. MMSI: 305674000.

Date/timePositionNaut miles runAvg speedWind from/ knotsBaromVisibWave heightAir tempDewpointWater temp
2018-Jan-22 21:55N 51°20' E 002°32'0 0.0
2018-Jan-22 21:28N 51°20' E 002°32'0 0.1
2018-Jan-22 20:55N 51°20' E 002°32'0 0.2
2018-Jan-22 20:28N 51°20' E 002°32'0 0.1
2018-Jan-22 19:58N 51°20' E 002°32'0 0.1
2018-Jan-22 19:28N 51°20' E 002°32'0 0.0
2018-Jan-22 18:55N 51°20' E 002°32'0 0.0
2018-Jan-22 18:25N 51°20' E 002°32'0 0.0
2018-Jan-22 17:49N 51°20' E 002°32'0 0.0
2018-Jan-22 17:16N 51°20' E 002°32'0 0.0
2018-Jan-22 16:46N 51°20' E 002°32'0 0.0
2018-Jan-22 16:28N 51°20' E 002°32'0 0.0
2018-Jan-22 15:58N 51°20' E 002°32'0 0.0
2018-Jan-22 15:25N 51°20' E 002°32'0 0.0
2018-Jan-22 14:49N 51°20' E 002°32'0 0.0
2018-Jan-22 14:28N 51°20' E 002°32'0 0.1
2018-Jan-22 13:55N 51°20' E 002°32'0 0.1
2018-Jan-22 13:07N 51°20' E 002°32'0 0.2
2018-Jan-22 12:55N 51°20' E 002°32'0 0.1
2018-Jan-22 12:25N 51°20' E 002°32'0 0.1
2018-Jan-22 11:58N 51°20' E 002°32'0 0.0
2018-Jan-22 11:28N 51°20' E 002°32'0 0.0
2018-Jan-22 10:49N 51°20' E 002°32'0 0.0
2018-Jan-22 10:28N 51°20' E 002°32'0 0.0
2018-Jan-22 09:55N 51°20' E 002°32'0 0.0
2018-Jan-22 09:28N 51°20' E 002°32'0 0.2
2018-Jan-22 08:37N 51°20' E 002°32'0 0.3
2018-Jan-22 08:28N 51°20' E 002°32'0 0.0
2018-Jan-22 07:43N 51°20' E 002°32'0 0.1
2018-Jan-22 07:28N 51°20' E 002°32'0 0.0
2018-Jan-22 06:58N 51°20' E 002°32'0 0.0
2018-Jan-22 06:10N 51°20' E 002°32'0 0.0
2018-Jan-22 05:58N 51°20' E 002°32'0 0.0
2018-Jan-22 05:25N 51°20' E 002°32'0 0.0
2018-Jan-22 04:58N 51°20' E 002°32'0 0.0
2018-Jan-22 04:28N 51°20' E 002°32'0 0.0
2018-Jan-22 03:58N 51°20' E 002°32'0 0.0
2018-Jan-22 03:25N 51°20' E 002°32'0 0.0
2018-Jan-22 02:58N 51°20' E 002°32'0 0.0
2018-Jan-22 02:28N 51°20' E 002°32'0 0.1
2018-Jan-22 01:58N 51°20' E 002°32'0 0.0
2018-Jan-22 01:28N 51°20' E 002°32'0 0.2
2018-Jan-22 00:58N 51°20' E 002°32'0 0.2
2018-Jan-22 00:28N 51°20' E 002°32'0 0.1
2018-Jan-21 23:46N 51°20' E 002°32'0 0.0
2018-Jan-21 23:28N 51°20' E 002°32'0 0.0
2018-Jan-21 22:58N 51°20' E 002°32'0 0.0
2018-Jan-21 22:22N 51°20' E 002°32'0 0.0
2018-Jan-21 21:55N 51°20' E 002°32'0 0.1
2018-Jan-21 21:28N 51°20' E 002°32'0 0.2
2018-Jan-21 20:58N 51°20' E 002°32'0 0.1
2018-Jan-21 20:25N 51°20' E 002°32'0 0.0
2018-Jan-21 19:58N 51°20' E 002°32'0 0.0
2018-Jan-21 19:28N 51°20' E 002°32'0 0.0
2018-Jan-21 18:58N 51°20' E 002°32'0 0.1
2018-Jan-21 18:28N 51°20' E 002°32'0 0.1
2018-Jan-21 17:58N 51°20' E 002°32'0 0.1
2018-Jan-21 17:28N 51°20' E 002°32'0 0.0
2018-Jan-21 16:58N 51°20' E 002°32'0 0.0
2018-Jan-21 16:28N 51°20' E 002°32'0 0.0
2018-Jan-21 15:58N 51°20' E 002°32'0 0.0
2018-Jan-21 15:28N 51°20' E 002°32'0 0.0
2018-Jan-21 14:58N 51°20' E 002°32'0 0.0
2018-Jan-21 14:28N 51°20' E 002°32'0 0.0
2018-Jan-21 13:58N 51°20' E 002°32'0 0.1
2018-Jan-21 13:30N 51°20' E 002°32'3 5.7
2018-Jan-21 12:59N 51°21' E 002°28'511.2
2018-Jan-21 12:30N 51°19' E 002°20'510.7
2018-Jan-21 12:00N 51°16' E 002°13'510.2
2018-Jan-21 11:30N 51°13' E 002°06'5 9.5
2018-Jan-21 11:01N 51°11' E 001°60'5 9.2
2018-Jan-21 10:30N 51°09' E 001°53'4 8.6
2018-Jan-21 10:00N 51°06' E 001°47'4 8.6
2018-Jan-21 09:30N 51°03' E 001°43'6 8.4
2018-Jan-21 08:48N 50°59' E 001°36'3 8.4
2018-Jan-21 08:30N 50°57' E 001°34'4 8.4
2018-Jan-21 08:00N 50°54' E 001°30'17510.4
2018-Jan-20 15:13N 49°49' W 002°45'368 7.7
2018-Jan-18 15:09N 43°42' W 003°14'1 9.0
2018-Jan-18 15:00N 43°40' W 003°13'5 9.1
2018-Jan-18 14:25N 43°35' W 003°11'4 9.1
2018-Jan-18 13:59N 43°32' W 003°09'5 9.4
2018-Jan-18 13:30N 43°27' W 003°07'5 9.3
2018-Jan-18 13:00N 43°23' W 003°05'3 6.1
2018-Jan-18 12:30N 43°20' W 003°02'0 0.2
2018-Jan-18 11:59N 43°21' W 003°02'0 0.0
2018-Jan-18 11:27N 43°21' W 003°02'0 0.0
2018-Jan-18 11:00N 43°21' W 003°02'0 0.0
2018-Jan-18 10:30N 43°21' W 003°02'0 0.0
2018-Jan-18 10:00N 43°21' W 003°02'0 0.0
2018-Jan-18 09:30N 43°21' W 003°02'0 0.0
2018-Jan-18 09:00N 43°21' W 003°02'0 0.0
2018-Jan-18 08:30N 43°21' W 003°02'0 0.0
2018-Jan-18 08:00N 43°21' W 003°02'0 0.0
2018-Jan-18 07:30N 43°21' W 003°02'0 0.0
2018-Jan-18 06:59N 43°21' W 003°02'0 0.0
2018-Jan-18 06:30N 43°21' W 003°02'0 0.0
2018-Jan-18 06:00N 43°21' W 003°02'0 0.0
2018-Jan-18 05:27N 43°21' W 003°02'0 0.0
2018-Jan-18 05:00N 43°21' W 003°02'0 0.0
2018-Jan-18 04:29N 43°21' W 003°02'0 0.0
2018-Jan-18 04:00N 43°21' W 003°02'0 0.0
2018-Jan-18 03:26N 43°21' W 003°02'0 0.0
2018-Jan-18 03:00N 43°21' W 003°02'0 0.0
2018-Jan-18 02:30N 43°21' W 003°02'0 0.0
2018-Jan-18 01:54N 43°21' W 003°02'0 0.0
2018-Jan-18 01:26N 43°21' W 003°02'0 0.0
2018-Jan-18 00:57N 43°21' W 003°02'0 0.0
2018-Jan-17 23:59N 43°21' W 003°02'0 0.0
2018-Jan-17 23:56N 43°21' W 003°02'  
Track history (hours):
 
Tides and Currents Weather Stations Pressure Air Temp Water Temp Dewpoint Dewpoint Depression Visibility Wind Speed Wind Dir Waves Ship Positions

Nbp Island

Last reported at 2018-Jan-22 21:55 UTC. Time now 2018-Jan-22 22:17 UTC.
Position N 51°20' E 002°32'.

Length 107 m; draft 8.2 m.

Type: Cargo ship. MMSI: 305674000.

Date/timePositionNaut miles runAvg speedWind from/ knotsBaromVisibWave heightAir tempDewpointWater temp
2018-Jan-22 21:55N 51°20' E 002°32'0 0.0
2018-Jan-22 21:28N 51°20' E 002°32'0 0.1
2018-Jan-22 20:55N 51°20' E 002°32'0 0.2
2018-Jan-22 20:28N 51°20' E 002°32'0 0.1
2018-Jan-22 19:58N 51°20' E 002°32'0 0.1
2018-Jan-22 19:28N 51°20' E 002°32'0 0.0
2018-Jan-22 18:55N 51°20' E 002°32'0 0.0
2018-Jan-22 18:25N 51°20' E 002°32'0 0.0
2018-Jan-22 17:49N 51°20' E 002°32'0 0.0
2018-Jan-22 17:16N 51°20' E 002°32'0 0.0
2018-Jan-22 16:46N 51°20' E 002°32'0 0.0
2018-Jan-22 16:28N 51°20' E 002°32'0 0.0
2018-Jan-22 15:58N 51°20' E 002°32'0 0.0
2018-Jan-22 15:25N 51°20' E 002°32'0 0.0
2018-Jan-22 14:49N 51°20' E 002°32'0 0.0
2018-Jan-22 14:28N 51°20' E 002°32'0 0.1
2018-Jan-22 13:55N 51°20' E 002°32'0 0.1
2018-Jan-22 13:07N 51°20' E 002°32'0 0.2
2018-Jan-22 12:55N 51°20' E 002°32'0 0.1
2018-Jan-22 12:25N 51°20' E 002°32'0 0.1
2018-Jan-22 11:58N 51°20' E 002°32'0 0.0
2018-Jan-22 11:28N 51°20' E 002°32'0 0.0
2018-Jan-22 10:49N 51°20' E 002°32'0 0.0
2018-Jan-22 10:28N 51°20' E 002°32'0 0.0
2018-Jan-22 09:55N 51°20' E 002°32'0 0.0
2018-Jan-22 09:28N 51°20' E 002°32'0 0.2
2018-Jan-22 08:37N 51°20' E 002°32'0 0.3
2018-Jan-22 08:28N 51°20' E 002°32'0 0.0
2018-Jan-22 07:43N 51°20' E 002°32'0 0.1
2018-Jan-22 07:28N 51°20' E 002°32'0 0.0
2018-Jan-22 06:58N 51°20' E 002°32'0 0.0
2018-Jan-22 06:10N 51°20' E 002°32'0 0.0
2018-Jan-22 05:58N 51°20' E 002°32'0 0.0
2018-Jan-22 05:25N 51°20' E 002°32'0 0.0
2018-Jan-22 04:58N 51°20' E 002°32'0 0.0
2018-Jan-22 04:28N 51°20' E 002°32'0 0.0
2018-Jan-22 03:58N 51°20' E 002°32'0 0.0
2018-Jan-22 03:25N 51°20' E 002°32'0 0.0
2018-Jan-22 02:58N 51°20' E 002°32'0 0.0
2018-Jan-22 02:28N 51°20' E 002°32'0 0.1
2018-Jan-22 01:58N 51°20' E 002°32'0 0.0
2018-Jan-22 01:28N 51°20' E 002°32'0 0.2
2018-Jan-22 00:58N 51°20' E 002°32'0 0.2
2018-Jan-22 00:28N 51°20' E 002°32'0 0.1
2018-Jan-21 23:46N 51°20' E 002°32'0 0.0
2018-Jan-21 23:28N 51°20' E 002°32'0 0.0
2018-Jan-21 22:58N 51°20' E 002°32'0 0.0
2018-Jan-21 22:22N 51°20' E 002°32'0 0.0
2018-Jan-21 21:55N 51°20' E 002°32'0 0.1
2018-Jan-21 21:28N 51°20' E 002°32'0 0.2
2018-Jan-21 20:58N 51°20' E 002°32'0 0.1
2018-Jan-21 20:25N 51°20' E 002°32'0 0.0
2018-Jan-21 19:58N 51°20' E 002°32'0 0.0
2018-Jan-21 19:28N 51°20' E 002°32'0 0.0
2018-Jan-21 18:58N 51°20' E 002°32'0 0.1
2018-Jan-21 18:28N 51°20' E 002°32'0 0.1
2018-Jan-21 17:58N 51°20' E 002°32'0 0.1
2018-Jan-21 17:28N 51°20' E 002°32'0 0.0
2018-Jan-21 16:58N 51°20' E 002°32'0 0.0
2018-Jan-21 16:28N 51°20' E 002°32'0 0.0
2018-Jan-21 15:58N 51°20' E 002°32'0 0.0
2018-Jan-21 15:28N 51°20' E 002°32'0 0.0
2018-Jan-21 14:58N 51°20' E 002°32'0 0.0
2018-Jan-21 14:28N 51°20' E 002°32'0 0.0
2018-Jan-21 13:58N 51°20' E 002°32'0 0.1
2018-Jan-21 13:30N 51°20' E 002°32'3 5.7
2018-Jan-21 12:59N 51°21' E 002°28'511.2
2018-Jan-21 12:30N 51°19' E 002°20'510.7
2018-Jan-21 12:00N 51°16' E 002°13'510.2
2018-Jan-21 11:30N 51°13' E 002°06'5 9.5
2018-Jan-21 11:01N 51°11' E 001°60'5 9.2
2018-Jan-21 10:30N 51°09' E 001°53'4 8.6
2018-Jan-21 10:00N 51°06' E 001°47'4 8.6
2018-Jan-21 09:30N 51°03' E 001°43'6 8.4
2018-Jan-21 08:48N 50°59' E 001°36'3 8.4
2018-Jan-21 08:30N 50°57' E 001°34'4 8.4
2018-Jan-21 08:00N 50°54' E 001°30'17510.4
2018-Jan-20 15:13N 49°49' W 002°45'368 7.7
2018-Jan-18 15:09N 43°42' W 003°14'1 9.0
2018-Jan-18 15:00N 43°40' W 003°13'5 9.1
2018-Jan-18 14:25N 43°35' W 003°11'4 9.1
2018-Jan-18 13:59N 43°32' W 003°09'5 9.4
2018-Jan-18 13:30N 43°27' W 003°07'5 9.3
2018-Jan-18 13:00N 43°23' W 003°05'3 6.1
2018-Jan-18 12:30N 43°20' W 003°02'0 0.2
2018-Jan-18 11:59N 43°21' W 003°02'0 0.0
2018-Jan-18 11:27N 43°21' W 003°02'0 0.0
2018-Jan-18 11:00N 43°21' W 003°02'0 0.0
2018-Jan-18 10:30N 43°21' W 003°02'0 0.0
2018-Jan-18 10:00N 43°21' W 003°02'0 0.0
2018-Jan-18 09:30N 43°21' W 003°02'0 0.0
2018-Jan-18 09:00N 43°21' W 003°02'0 0.0
2018-Jan-18 08:30N 43°21' W 003°02'0 0.0
2018-Jan-18 08:00N 43°21' W 003°02'0 0.0
2018-Jan-18 07:30N 43°21' W 003°02'0 0.0
2018-Jan-18 06:59N 43°21' W 003°02'0 0.0
2018-Jan-18 06:30N 43°21' W 003°02'0 0.0
2018-Jan-18 06:00N 43°21' W 003°02'0 0.0
2018-Jan-18 05:27N 43°21' W 003°02'0 0.0
2018-Jan-18 05:00N 43°21' W 003°02'0 0.0
2018-Jan-18 04:29N 43°21' W 003°02'0 0.0
2018-Jan-18 04:00N 43°21' W 003°02'0 0.0
2018-Jan-18 03:26N 43°21' W 003°02'0 0.0
2018-Jan-18 03:00N 43°21' W 003°02'0 0.0
2018-Jan-18 02:30N 43°21' W 003°02'0 0.0
2018-Jan-18 01:54N 43°21' W 003°02'0 0.0
2018-Jan-18 01:26N 43°21' W 003°02'0 0.0
2018-Jan-18 00:57N 43°21' W 003°02'0 0.0
2018-Jan-17 23:59N 43°21' W 003°02'0 0.0
2018-Jan-17 23:56N 43°21' W 003°02'  

Dump ship's entire track history